createdAt,value
2018-08-24T00:01:59.103Z,25.20
2018-08-24T00:04:32.689Z,25.20
2018-08-24T00:07:05.480Z,25.20
2018-08-24T00:09:37.617Z,25.20
2018-08-24T00:12:09.726Z,25.10
2018-08-24T00:14:41.839Z,25.00
2018-08-24T00:17:18.277Z,25.00
2018-08-24T00:19:50.653Z,24.90
2018-08-24T00:22:22.934Z,24.80
2018-08-24T00:24:55.350Z,24.80
2018-08-24T00:27:27.753Z,24.80
2018-08-24T00:30:00.480Z,24.80
2018-08-24T00:32:32.760Z,24.90
2018-08-24T00:35:05.304Z,24.80
2018-08-24T00:37:37.927Z,25.00
2018-08-24T00:40:11.543Z,25.10
2018-08-24T00:42:44.799Z,25.10
2018-08-24T00:45:17.217Z,25.20
2018-08-24T00:47:49.697Z,25.20
2018-08-24T00:50:21.929Z,25.30
2018-08-24T00:52:54.345Z,25.20
2018-08-24T00:55:27.188Z,25.10
2018-08-24T00:58:03.824Z,25.10
2018-08-24T01:00:40.529Z,25.00
2018-08-24T01:03:13.994Z,25.20
2018-08-24T01:05:46.367Z,25.10
2018-08-24T01:08:19.313Z,25.20
2018-08-24T01:10:51.507Z,25.00
2018-08-24T01:13:23.600Z,25.00
2018-08-24T01:15:59.075Z,24.90
2018-08-24T01:18:35.533Z,24.50
2018-08-24T01:21:07.806Z,24.50
2018-08-24T01:23:39.838Z,24.60
2018-08-24T01:26:12.394Z,24.70
2018-08-24T01:28:44.574Z,24.50
2018-08-24T01:31:16.629Z,24.50
2018-08-24T01:33:48.775Z,24.50
2018-08-24T01:36:21.143Z,24.60
2018-08-24T01:38:53.243Z,24.60
2018-08-24T01:41:26.845Z,24.70
2018-08-24T01:43:58.710Z,24.70
2018-08-24T01:46:31.483Z,24.60
2018-08-24T01:49:03.731Z,24.60
2018-08-24T01:51:35.779Z,24.30
2018-08-24T01:54:07.939Z,24.40
2018-08-24T01:56:40.095Z,24.40
2018-08-24T01:59:12.135Z,24.30
2018-08-24T02:01:44.684Z,24.30
2018-08-24T02:04:17.570Z,24.30
2018-08-24T02:06:50.024Z,24.40
2018-08-24T02:09:25.042Z,24.40
2018-08-24T02:11:57.158Z,24.50
2018-08-24T02:14:33.841Z,24.30
2018-08-24T02:17:06.391Z,24.20
2018-08-24T02:19:42.743Z,24.10
2018-08-24T02:22:18.715Z,24.00
2018-08-24T02:24:50.751Z,24.00
2018-08-24T02:27:23.037Z,23.90
2018-08-24T02:29:59.253Z,24.00
2018-08-24T02:32:31.285Z,23.90
2018-08-24T02:35:04.855Z,23.90
2018-08-24T02:37:36.948Z,24.00
2018-08-24T02:40:09.083Z,23.90
2018-08-24T02:42:41.235Z,23.80
2018-08-24T02:45:15.537Z,23.70
2018-08-24T02:47:47.871Z,23.80
2018-08-24T02:50:20.174Z,23.80
2018-08-24T02:52:52.446Z,23.80
2018-08-24T02:55:24.461Z,23.90
2018-08-24T02:57:56.734Z,23.70
2018-08-24T03:00:28.826Z,23.50
2018-08-24T03:03:01.032Z,23.80
2018-08-24T03:05:33.246Z,23.90
2018-08-24T03:08:06.845Z,23.90
2018-08-24T03:10:39.693Z,23.90
2018-08-24T03:13:11.893Z,23.80
2018-08-24T03:15:43.910Z,23.80
2018-08-24T03:18:15.987Z,23.90
2018-08-24T03:20:48.002Z,24.00
2018-08-24T03:23:20.026Z,23.80
2018-08-24T03:25:52.011Z,23.80
2018-08-24T03:28:24.123Z,23.60
2018-08-24T03:30:56.651Z,23.50
2018-08-24T03:33:29.644Z,23.50
2018-08-24T03:36:01.814Z,23.50
2018-08-24T03:38:34.095Z,23.60
2018-08-24T03:41:07.609Z,23.50
2018-08-24T03:43:39.789Z,23.40
2018-08-24T03:46:11.725Z,23.10
2018-08-24T03:48:44.166Z,23.10
2018-08-24T03:51:16.500Z,23.10
2018-08-24T03:53:48.592Z,23.20
2018-08-24T03:56:20.723Z,23.20
2018-08-24T03:58:52.737Z,23.40
2018-08-24T04:01:25.053Z,23.40
2018-08-24T04:03:57.233Z,23.40
2018-08-24T04:06:29.199Z,23.40
2018-08-24T04:09:01.229Z,23.40
2018-08-24T04:11:34.189Z,23.30
2018-08-24T04:14:06.336Z,23.20
2018-08-24T04:16:43.581Z,23.30
2018-08-24T04:19:20.231Z,23.00
2018-08-24T04:21:52.588Z,22.90
2018-08-24T04:24:24.626Z,22.90
2018-08-24T04:26:57.488Z,22.90
2018-08-24T04:29:29.491Z,22.90
2018-08-24T04:32:01.761Z,22.90
2018-08-24T04:34:33.922Z,22.90
2018-08-24T04:37:05.976Z,22.90
2018-08-24T04:39:38.211Z,23.00
2018-08-24T04:42:10.102Z,22.90
2018-08-24T04:44:42.620Z,22.90
2018-08-24T04:47:14.636Z,22.90
2018-08-24T04:49:46.592Z,22.70
2018-08-24T04:52:18.734Z,22.70
2018-08-24T04:54:50.886Z,22.60
2018-08-24T04:57:22.695Z,22.60
2018-08-24T04:59:54.756Z,22.70
2018-08-24T05:02:27.119Z,22.50
2018-08-24T05:04:59.299Z,22.40
2018-08-24T05:07:31.281Z,22.40
2018-08-24T05:10:03.507Z,22.50
2018-08-24T05:12:36.643Z,22.40
2018-08-24T05:15:09.057Z,22.30
2018-08-24T05:17:41.172Z,22.40
2018-08-24T05:20:13.318Z,22.50
2018-08-24T05:22:45.427Z,22.50
2018-08-24T05:25:17.505Z,22.40
2018-08-24T05:27:49.477Z,22.40
2018-08-24T05:30:21.572Z,22.30
2018-08-24T05:32:53.470Z,22.40
2018-08-24T05:35:25.475Z,22.40
2018-08-24T05:37:57.619Z,22.50
2018-08-24T05:40:29.598Z,22.50
2018-08-24T05:43:01.674Z,22.50
2018-08-24T05:45:34.203Z,22.50
2018-08-24T05:48:06.598Z,22.50
2018-08-24T05:50:38.948Z,22.50
2018-08-24T05:53:11.209Z,22.40
2018-08-24T05:55:43.345Z,22.30
2018-08-24T05:58:15.466Z,22.10
2018-08-24T06:00:48.003Z,22.30
2018-08-24T06:03:20.112Z,22.40
2018-08-24T06:05:56.516Z,22.40
2018-08-24T06:08:28.532Z,22.50
2018-08-24T06:11:01.039Z,22.50
2018-08-24T06:13:33.696Z,22.50
2018-08-24T06:16:05.695Z,22.50
2018-08-24T06:18:37.864Z,22.50
2018-08-24T06:21:10.175Z,22.50
2018-08-24T06:23:42.238Z,22.60
2018-08-24T06:26:14.097Z,22.60
2018-08-24T06:28:46.132Z,22.40
2018-08-24T06:31:18.382Z,22.40
2018-08-24T06:33:50.770Z,22.50
2018-08-24T06:36:22.895Z,22.50
2018-08-24T06:38:54.864Z,22.50
2018-08-24T06:41:27.521Z,22.50
2018-08-24T06:43:59.762Z,22.50
2018-08-24T06:46:31.801Z,22.50
2018-08-24T06:49:03.911Z,22.50
2018-08-24T06:51:36.137Z,22.50
2018-08-24T06:54:08.294Z,22.50
2018-08-24T06:56:40.337Z,22.50
2018-08-24T06:59:12.359Z,22.60
2018-08-24T07:01:44.478Z,22.70
2018-08-24T07:04:16.665Z,22.50
2018-08-24T07:06:48.735Z,22.50
2018-08-24T07:09:20.548Z,22.50
2018-08-24T07:11:52.894Z,22.50
2018-08-24T07:14:25.125Z,22.60
2018-08-24T07:17:02.117Z,22.60
2018-08-24T07:19:34.042Z,22.70
2018-08-24T07:22:06.313Z,22.50
2018-08-24T07:24:38.229Z,22.50
2018-08-24T07:27:10.423Z,22.60
2018-08-24T07:29:42.696Z,22.40
2018-08-24T07:32:14.869Z,22.30
2018-08-24T07:34:47.146Z,22.30
2018-08-24T07:37:19.318Z,22.30
2018-08-24T07:39:51.414Z,22.20
2018-08-24T07:42:23.532Z,22.30
2018-08-24T07:44:56.518Z,22.40
2018-08-24T07:47:28.547Z,22.30
2018-08-24T07:50:00.626Z,22.20
2018-08-24T07:52:32.824Z,22.10
2018-08-24T07:55:04.978Z,22.10
2018-08-24T07:57:37.553Z,22.20
2018-08-24T08:00:09.943Z,22.00
2018-08-24T08:02:47.414Z,22.10
2018-08-24T08:05:19.522Z,22.10
2018-08-24T08:07:52.806Z,22.20
2018-08-24T08:10:25.137Z,22.30
2018-08-24T08:12:57.409Z,22.20
2018-08-24T08:15:29.391Z,22.20
2018-08-24T08:18:01.381Z,22.20
2018-08-24T08:20:33.544Z,22.20
2018-08-24T08:23:05.976Z,22.20
2018-08-24T08:25:37.801Z,22.20
2018-08-24T08:28:10.102Z,22.20
2018-08-24T08:30:42.261Z,22.00
2018-08-24T08:33:14.328Z,21.80
2018-08-24T08:35:46.516Z,21.90
2018-08-24T08:38:18.658Z,21.90
2018-08-24T08:40:50.696Z,22.00
2018-08-24T08:43:22.958Z,22.00
2018-08-24T08:45:55.035Z,21.90
2018-08-24T08:48:27.241Z,21.80
2018-08-24T08:50:59.201Z,21.60
2018-08-24T08:53:31.433Z,21.40
2018-08-24T08:56:03.688Z,21.50
2018-08-24T08:58:36.567Z,21.50
2018-08-24T09:01:08.681Z,21.20
2018-08-24T09:03:41.152Z,21.00
2018-08-24T09:06:13.496Z,20.90
2018-08-24T09:08:45.854Z,20.60
2018-08-24T09:11:17.829Z,20.50
2018-08-24T09:13:49.991Z,20.60
2018-08-24T09:16:22.060Z,20.50
2018-08-24T09:18:58.734Z,20.50
2018-08-24T09:21:34.989Z,20.50
2018-08-24T09:24:11.664Z,20.60
2018-08-24T09:26:48.188Z,20.70
2018-08-24T09:29:27.858Z,20.50
2018-08-24T09:32:01.489Z,20.50
2018-08-24T09:34:33.524Z,20.60
2018-08-24T09:37:09.475Z,20.70
2018-08-24T09:39:41.864Z,20.70
2018-08-24T09:42:13.922Z,20.80
2018-08-24T09:44:45.976Z,20.80
2018-08-24T09:47:22.317Z,20.80
2018-08-24T09:49:54.361Z,20.80
2018-08-24T09:52:28.500Z,20.80
2018-08-24T09:55:00.555Z,20.90
2018-08-24T09:57:32.701Z,20.90
2018-08-24T10:00:05.018Z,20.80
2018-08-24T10:02:41.482Z,20.80
2018-08-24T10:05:18.163Z,20.80
2018-08-24T10:07:54.676Z,21.00
2018-08-24T10:10:26.677Z,21.00
2018-08-24T10:12:58.663Z,21.00
2018-08-24T10:15:30.879Z,21.00
2018-08-24T10:18:02.845Z,20.80
2018-08-24T10:20:34.966Z,20.80
2018-08-24T10:23:07.243Z,20.70
2018-08-24T10:25:39.598Z,20.70
2018-08-24T10:28:11.686Z,20.60
2018-08-24T10:30:43.908Z,20.60
2018-08-24T10:33:15.957Z,20.70
2018-08-24T10:35:47.934Z,20.60
2018-08-24T10:38:20.417Z,20.70
2018-08-24T10:40:52.633Z,20.60
2018-08-24T10:43:24.681Z,20.70
2018-08-24T10:45:56.834Z,20.70
2018-08-24T10:48:29.030Z,20.60
2018-08-24T10:51:01.078Z,20.70
2018-08-24T10:53:33.022Z,20.60
2018-08-24T10:56:05.134Z,20.70
2018-08-24T10:58:37.435Z,20.80
2018-08-24T11:01:10.164Z,20.90
2018-08-24T11:03:42.061Z,21.00
2018-08-24T11:06:14.278Z,21.20
2018-08-24T11:08:46.354Z,21.20
2018-08-24T11:11:18.885Z,21.30
2018-08-24T11:13:50.919Z,21.30
2018-08-24T11:16:23.007Z,21.30
2018-08-24T11:18:55.206Z,21.40
2018-08-24T11:21:27.267Z,21.30
2018-08-24T11:23:59.723Z,21.20
2018-08-24T11:26:31.739Z,21.10
2018-08-24T11:29:03.761Z,21.10
2018-08-24T11:31:36.071Z,20.80
2018-08-24T11:34:08.322Z,20.80
2018-08-24T11:36:40.509Z,21.00
2018-08-24T11:39:12.607Z,21.10
2018-08-24T11:41:44.528Z,21.10
2018-08-24T11:44:16.588Z,21.00
2018-08-24T11:46:48.500Z,20.90
2018-08-24T11:49:20.540Z,20.80
2018-08-24T11:51:52.811Z,20.70
2018-08-24T11:54:25.083Z,20.60
2018-08-24T11:56:57.221Z,20.50
2018-08-24T11:59:29.617Z,20.50
2018-08-24T12:02:01.966Z,20.60
2018-08-24T12:04:34.216Z,20.50
2018-08-24T12:07:06.278Z,20.60
2018-08-24T12:09:38.855Z,20.60
2018-08-24T12:12:10.927Z,20.60
2018-08-24T12:14:43.386Z,20.60
2018-08-24T12:17:19.328Z,20.60
2018-08-24T12:19:52.630Z,20.60
2018-08-24T12:22:24.604Z,20.60
2018-08-24T12:24:56.863Z,20.70
2018-08-24T12:27:29.942Z,20.60
2018-08-24T12:30:02.804Z,20.60
2018-08-24T12:32:34.796Z,20.70
2018-08-24T12:35:06.878Z,20.60
2018-08-24T12:37:45.192Z,20.50
2018-08-24T12:40:17.765Z,20.30
2018-08-24T12:42:49.862Z,20.40
2018-08-24T12:45:22.943Z,20.40
2018-08-24T12:47:55.380Z,20.40
2018-08-24T12:50:27.295Z,20.30
2018-08-24T12:52:59.502Z,20.30
2018-08-24T12:55:31.617Z,20.20
2018-08-24T12:58:03.852Z,20.20
2018-08-24T13:00:35.882Z,20.30
2018-08-24T13:03:08.026Z,20.40
2018-08-24T13:05:40.082Z,20.50
2018-08-24T13:08:12.395Z,20.60
2018-08-24T13:10:44.994Z,20.80
2018-08-24T13:13:17.788Z,20.80
2018-08-24T13:15:49.858Z,20.90
2018-08-24T13:18:21.989Z,21.00
2018-08-24T13:20:54.590Z,21.20
2018-08-24T13:23:26.616Z,21.30
2018-08-24T13:25:58.566Z,21.40
2018-08-24T13:28:30.846Z,21.60
2018-08-24T13:31:02.871Z,21.70
2018-08-24T13:33:35.333Z,21.50
2018-08-24T13:36:07.408Z,21.40
2018-08-24T13:38:39.566Z,21.70
2018-08-24T13:41:11.879Z,21.80
2018-08-24T13:43:44.816Z,21.80
2018-08-24T13:46:21.148Z,21.70
2018-08-24T13:48:53.673Z,21.80
2018-08-24T13:51:27.485Z,22.10
2018-08-24T13:54:00.067Z,22.40
2018-08-24T13:56:32.022Z,22.50
2018-08-24T13:59:05.241Z,22.70
2018-08-24T14:01:37.493Z,22.70
2018-08-24T14:04:09.608Z,22.80
2018-08-24T14:06:42.603Z,22.80
2018-08-24T14:09:15.134Z,22.60
2018-08-24T14:11:47.666Z,22.50
2018-08-24T14:14:20.443Z,22.50
2018-08-24T14:16:52.846Z,22.60
2018-08-24T14:19:24.966Z,22.50
2018-08-24T14:21:57.868Z,22.10
2018-08-24T14:24:30.490Z,22.10
2018-08-24T14:27:03.073Z,22.10
2018-08-24T14:29:35.608Z,22.70
2018-08-24T14:32:07.717Z,23.40
2018-08-24T14:34:40.037Z,23.90
2018-08-24T14:37:12.280Z,24.50
2018-08-24T14:39:44.969Z,25.20
2018-08-24T14:42:17.253Z,24.90
2018-08-24T14:44:49.406Z,24.90
2018-08-24T14:47:21.602Z,25.20
2018-08-24T14:49:53.995Z,25.20
2018-08-24T14:52:26.828Z,24.80
2018-08-24T14:54:59.383Z,25.00
2018-08-24T14:57:31.845Z,24.90
2018-08-24T15:00:04.160Z,24.50
2018-08-24T15:02:36.615Z,24.60
2018-08-24T15:05:10.750Z,24.80
2018-08-24T15:07:42.880Z,25.10
2018-08-24T15:10:16.396Z,25.50
2018-08-24T15:12:48.997Z,25.70
2018-08-24T15:15:22.090Z,26.10
2018-08-24T15:17:55.960Z,25.90
2018-08-24T15:20:28.822Z,25.90
2018-08-24T15:23:01.262Z,26.10
2018-08-24T15:25:34.553Z,26.20
2018-08-24T15:28:06.804Z,26.20
2018-08-24T15:30:38.961Z,26.10
2018-08-24T15:33:13.978Z,26.30
2018-08-24T15:35:47.322Z,26.20
2018-08-24T15:38:21.413Z,26.70
2018-08-24T15:40:54.572Z,26.60
2018-08-24T15:43:27.932Z,26.50
2018-08-24T15:46:01.855Z,26.20
2018-08-24T15:48:34.920Z,26.10
2018-08-24T15:51:09.470Z,26.00
2018-08-24T15:53:41.735Z,26.30
2018-08-24T15:56:14.107Z,26.40
2018-08-24T15:58:46.281Z,26.50
2018-08-24T16:01:24.170Z,27.30
2018-08-24T16:03:56.336Z,27.00
2018-08-24T16:06:28.606Z,27.50
2018-08-24T16:09:01.640Z,27.60
2018-08-24T16:11:34.570Z,27.50
2018-08-24T16:14:08.327Z,27.40
2018-08-24T16:16:40.894Z,27.70
2018-08-24T16:19:13.553Z,27.90
2018-08-24T16:21:46.577Z,27.50
2018-08-24T16:24:19.273Z,27.20
2018-08-24T16:26:51.920Z,27.80
2018-08-24T16:29:25.377Z,27.90
2018-08-24T16:31:58.411Z,27.90
2018-08-24T16:34:32.456Z,28.50
2018-08-24T16:37:07.125Z,28.80
2018-08-24T16:39:39.648Z,28.20
2018-08-24T16:42:12.201Z,28.00
2018-08-24T16:44:46.330Z,27.40
2018-08-24T16:47:21.724Z,27.20
2018-08-24T16:49:58.377Z,28.00
2018-08-24T16:52:31.345Z,28.30
2018-08-24T16:55:06.321Z,27.80
2018-08-24T16:57:41.667Z,27.70
2018-08-24T17:00:16.211Z,27.80
2018-08-24T17:02:49.139Z,28.50
2018-08-24T17:05:22.595Z,29.10
2018-08-24T17:07:55.914Z,29.50
2018-08-24T17:10:28.182Z,29.60
2018-08-24T17:13:00.325Z,29.30
2018-08-24T17:15:39.719Z,28.50
2018-08-24T17:18:12.247Z,28.90
2018-08-24T17:20:49.472Z,29.20
2018-08-24T17:23:21.772Z,29.00
2018-08-24T17:25:54.621Z,29.20
2018-08-24T17:28:28.212Z,29.70
2018-08-24T17:31:02.387Z,29.30
2018-08-24T17:33:35.703Z,28.70
2018-08-24T17:36:10.251Z,28.60
2018-08-24T17:38:47.390Z,28.80
2018-08-24T17:41:22.228Z,28.60
2018-08-24T17:43:58.672Z,29.00
2018-08-24T17:46:33.024Z,28.50
2018-08-24T17:49:06.717Z,29.30
2018-08-24T17:51:41.164Z,30.10
2018-08-24T17:54:13.899Z,29.90
2018-08-24T17:56:46.801Z,29.20
2018-08-24T17:59:18.957Z,28.90
2018-08-24T18:01:54.107Z,28.80
2018-08-24T18:04:26.446Z,28.90
2018-08-24T18:06:59.425Z,30.20
2018-08-24T18:09:32.272Z,30.90
2018-08-24T18:12:04.649Z,30.20
2018-08-24T18:14:37.850Z,31.00
2018-08-24T18:17:10.944Z,31.80
2018-08-24T18:19:44.227Z,32.00
2018-08-24T18:22:18.281Z,32.30
2018-08-24T18:24:51.364Z,32.20
2018-08-24T18:27:24.441Z,32.20
2018-08-24T18:29:56.832Z,30.60
2018-08-24T18:32:29.213Z,30.90
2018-08-24T18:35:02.354Z,31.00
2018-08-24T18:37:35.558Z,30.80
2018-08-24T18:40:08.756Z,31.20
2018-08-24T18:42:41.419Z,31.10
2018-08-24T18:45:13.636Z,30.60
2018-08-24T18:47:46.933Z,31.30
2018-08-24T18:50:19.452Z,31.50
2018-08-24T18:52:53.185Z,32.10
2018-08-24T18:55:26.091Z,32.60
2018-08-24T18:57:59.066Z,32.50
2018-08-24T19:00:32.385Z,32.10
2018-08-24T19:03:05.275Z,31.10
2018-08-24T19:05:37.465Z,30.80
2018-08-24T19:08:14.595Z,31.10
2018-08-24T19:10:52.158Z,31.60
2018-08-24T19:13:25.189Z,30.80
2018-08-24T19:15:59.383Z,29.80
2018-08-24T19:18:36.532Z,30.80
2018-08-24T19:21:12.975Z,31.20
2018-08-24T19:23:46.108Z,31.60
2018-08-24T19:26:18.363Z,31.40
2018-08-24T19:28:56.951Z,30.50
2018-08-24T19:31:34.225Z,30.50
2018-08-24T19:34:07.726Z,31.50
2018-08-24T19:36:40.628Z,31.50
2018-08-24T19:39:15.598Z,31.50
2018-08-24T19:41:53.148Z,32.00
2018-08-24T19:44:25.865Z,32.00
2018-08-24T19:46:57.877Z,31.10
2018-08-24T19:49:30.624Z,31.10
2018-08-24T19:52:04.006Z,31.90
2018-08-24T19:54:37.102Z,32.20
2018-08-24T19:57:13.489Z,31.50
2018-08-24T19:59:46.395Z,32.30
2018-08-24T20:02:18.428Z,32.80
2018-08-24T20:04:53.088Z,32.90
2018-08-24T20:07:29.815Z,32.10
2018-08-24T20:10:14.882Z,32.10
2018-08-24T20:12:49.992Z,32.20
2018-08-24T20:15:26.913Z,31.90
2018-08-24T20:17:59.703Z,31.30
2018-08-24T20:20:33.072Z,31.70
2018-08-24T20:23:05.140Z,32.10
2018-08-24T20:25:39.713Z,32.60
2018-08-24T20:28:14.405Z,32.60
2018-08-24T20:30:48.787Z,32.60
2018-08-24T20:33:20.865Z,32.70
2018-08-24T20:35:53.817Z,31.90
2018-08-24T20:38:26.754Z,31.40
2018-08-24T20:40:59.688Z,31.80
2018-08-24T20:43:34.303Z,31.30
2018-08-24T20:46:08.249Z,30.70
2018-08-24T20:48:41.581Z,30.90
2018-08-24T20:51:16.702Z,30.80
2018-08-24T20:53:51.347Z,31.40
2018-08-24T20:56:25.230Z,31.10
2018-08-24T20:59:00.480Z,31.80
2018-08-24T21:01:33.127Z,32.20
2018-08-24T21:04:06.438Z,32.00
2018-08-24T21:06:40.075Z,32.10
2018-08-24T21:09:14.561Z,31.90
2018-08-24T21:11:48.465Z,31.70
2018-08-24T21:14:21.234Z,31.60
2018-08-24T21:16:57.233Z,31.30
2018-08-24T21:19:32.935Z,30.70
2018-08-24T21:22:08.564Z,31.50
2018-08-24T21:24:43.496Z,31.90
2018-08-24T21:27:16.259Z,32.50
2018-08-24T21:29:48.471Z,32.00
2018-08-24T21:32:21.715Z,32.10
2018-08-24T21:34:55.979Z,32.00
2018-08-24T21:37:29.301Z,32.00
2018-08-24T21:40:03.030Z,31.80
2018-08-24T21:42:35.368Z,31.80
2018-08-24T21:45:07.669Z,31.50
2018-08-24T21:47:40.414Z,31.80
2018-08-24T21:50:13.638Z,32.20
2018-08-24T21:52:46.380Z,32.10
2018-08-24T21:55:18.887Z,31.30
2018-08-24T21:57:51.141Z,30.40
2018-08-24T22:00:24.682Z,30.60
2018-08-24T22:02:57.157Z,30.70
2018-08-24T22:05:30.207Z,30.50
2018-08-24T22:08:02.590Z,29.90
2018-08-24T22:10:36.527Z,29.90
2018-08-24T22:13:09.156Z,30.10
2018-08-24T22:15:41.383Z,29.80
2018-08-24T22:18:13.840Z,29.60
2018-08-24T22:20:46.162Z,29.90
2018-08-24T22:23:19.208Z,30.20
2018-08-24T22:25:51.511Z,30.60
2018-08-24T22:28:25.191Z,30.70
2018-08-24T22:30:57.387Z,30.60
2018-08-24T22:33:30.166Z,30.70
2018-08-24T22:36:02.469Z,30.70
2018-08-24T22:38:34.804Z,29.90
2018-08-24T22:41:07.189Z,29.80
2018-08-24T22:43:41.298Z,29.50
2018-08-24T22:46:13.716Z,29.00
2018-08-24T22:48:46.503Z,29.00
2018-08-24T22:51:18.621Z,28.80
2018-08-24T22:53:51.440Z,28.80
2018-08-24T22:56:23.760Z,29.10
2018-08-24T22:58:56.026Z,28.60
2018-08-24T23:01:28.285Z,28.60
2018-08-24T23:04:02.163Z,28.30
2018-08-24T23:06:34.407Z,28.40
2018-08-24T23:09:11.426Z,28.40
2018-08-24T23:11:43.822Z,28.30
2018-08-24T23:14:16.050Z,28.00
2018-08-24T23:16:49.544Z,27.70
2018-08-24T23:19:21.753Z,27.80
2018-08-24T23:21:54.547Z,27.80
2018-08-24T23:24:27.279Z,27.90
2018-08-24T23:26:59.663Z,27.80
2018-08-24T23:29:32.087Z,28.00
2018-08-24T23:32:08.998Z,27.90
2018-08-24T23:34:42.459Z,27.70
2018-08-24T23:37:15.282Z,27.70
2018-08-24T23:39:47.654Z,27.70
2018-08-24T23:42:19.997Z,27.70
2018-08-24T23:44:52.289Z,27.30
2018-08-24T23:47:24.605Z,26.70
2018-08-24T23:49:58.330Z,26.80
2018-08-24T23:52:32.139Z,27.00
2018-08-24T23:55:04.756Z,26.70
2018-08-24T23:57:37.317Z,26.50
